Terminal Aerodrome Forecast
Issued by NWS Cleveland, OH

Home | Current Version | Previous Version | Text Only | Print | Product List | Glossary On
Versions: 1 2 3 4 5 6 7 8 9 10 11 12 13 14 15 16 17
000
FTUS41 KCLE 140800 AAA
TAFYNG
TAF AMD
KYNG 140844Z 1409/1506 20003KT 1SM BR OVC002
     FM141400 22005KT P6SM BKN010
     FM141600 22006KT P6SM BKN035
     FM142200 23008KT P6SM BKN050
      TEMPO 1423/1502 3SM TSRA OVC035CB=

USA.gov is the U.S. government's official web portal to all federal, state and local government web resources and services.